createdAt,value
2018-11-21T00:01:50.518Z,16.53
2018-11-21T00:04:31.835Z,12.90
2018-11-21T00:07:12.842Z,14.33
2018-11-21T00:09:54.308Z,12.60
2018-11-21T00:12:34.938Z,13.03
2018-11-21T00:15:15.900Z,13.20
2018-11-21T00:17:56.868Z,12.77
2018-11-21T00:20:37.842Z,12.40
2018-11-21T00:23:18.922Z,13.03
2018-11-21T00:26:00.500Z,12.33
2018-11-21T00:28:42.039Z,11.27
2018-11-21T00:31:22.908Z,11.17
2018-11-21T00:34:03.599Z,12.27
2018-11-21T00:36:44.546Z,11.93
2018-11-21T00:39:25.094Z,12.00
2018-11-21T00:42:06.077Z,11.10
2018-11-21T00:44:46.830Z,11.77
2018-11-21T00:47:27.969Z,12.10
2018-11-21T00:50:08.839Z,11.87
2018-11-21T00:52:49.876Z,12.23
2018-11-21T00:55:30.583Z,11.87
2018-11-21T00:58:51.847Z,12.47
2018-11-21T01:01:32.515Z,11.50
2018-11-21T01:04:12.937Z,11.50
2018-11-21T01:06:53.637Z,11.50
2018-11-21T01:09:34.022Z,11.17
2018-11-21T01:12:14.209Z,12.27
2018-11-21T01:14:55.177Z,12.33
2018-11-21T01:17:35.715Z,12.37
2018-11-21T01:20:16.445Z,12.03
2018-11-21T01:22:56.678Z,11.97
2018-11-21T01:25:36.881Z,13.93
2018-11-21T01:28:17.104Z,13.87
2018-11-21T01:30:57.597Z,11.77
2018-11-21T01:33:25.686Z,12.60
2018-11-21T01:36:13.233Z,12.77
2018-11-21T01:39:00.785Z,11.10
2018-11-21T01:41:48.322Z,11.90
2018-11-21T01:44:35.868Z,12.77
2018-11-21T01:47:23.391Z,13.93
2018-11-21T01:50:11.159Z,11.90
2018-11-21T01:52:58.694Z,12.67
2018-11-21T01:55:46.509Z,12.77
2018-11-21T01:58:34.256Z,13.53
2018-11-21T02:01:22.040Z,13.27
2018-11-21T02:04:09.792Z,13.80
2018-11-21T02:06:57.328Z,13.37
2018-11-21T02:09:45.100Z,13.07
2018-11-21T02:12:32.648Z,14.73
2018-11-21T02:15:20.226Z,10.87
2018-11-21T02:18:07.734Z,13.90
2018-11-21T02:20:55.302Z,13.63
2018-11-21T02:23:42.853Z,13.87
2018-11-21T02:32:17.436Z,11.60
2018-11-21T02:35:05.668Z,15.20
2018-11-21T02:41:00.160Z,10.33
2018-11-21T02:43:47.756Z,15.13
2018-11-21T02:46:35.322Z,14.60
2018-11-21T02:49:22.683Z,9.40
2018-11-21T02:52:10.020Z,12.23
2018-11-21T02:54:57.569Z,15.47
2018-11-21T02:57:45.145Z,15.07
2018-11-21T03:00:32.893Z,14.40
2018-11-21T03:03:20.690Z,14.67
2018-11-21T03:06:08.220Z,15.97
2018-11-21T03:08:55.759Z,16.97
2018-11-21T03:11:43.298Z,14.83
2018-11-21T03:14:30.865Z,16.27
2018-11-21T03:17:18.384Z,15.17
2018-11-21T03:20:05.918Z,16.07
2018-11-21T03:22:53.452Z,17.97
2018-11-21T03:25:41.107Z,17.17
2018-11-21T03:28:28.619Z,17.40
2018-11-21T03:30:56.716Z,16.60
2018-11-21T03:33:44.510Z,16.90
2018-11-21T03:36:32.045Z,17.37
2018-11-21T03:39:21.048Z,18.03
2018-11-21T03:42:08.581Z,17.47
2018-11-21T03:44:56.265Z,17.77
2018-11-21T03:47:43.773Z,19.63
2018-11-21T03:50:31.547Z,18.73
2018-11-21T03:53:19.088Z,18.70
2018-11-21T03:56:06.643Z,17.40
2018-11-21T03:58:54.429Z,19.93
2018-11-21T04:01:42.229Z,18.53
2018-11-21T04:04:29.980Z,17.67
2018-11-21T04:07:17.507Z,19.73
2018-11-21T04:10:07.140Z,20.17
2018-11-21T04:12:54.696Z,20.10
2018-11-21T04:15:42.210Z,18.90
2018-11-21T04:18:29.760Z,20.17
2018-11-21T04:21:17.283Z,19.27
2018-11-21T04:24:05.127Z,18.57
2018-11-21T04:26:52.655Z,19.00
2018-11-21T04:29:40.206Z,19.80
2018-11-21T04:32:27.984Z,19.77
2018-11-21T04:35:15.523Z,19.30
2018-11-21T04:38:03.039Z,17.40
2018-11-21T04:40:50.581Z,19.27
2018-11-21T04:43:38.325Z,18.53
2018-11-21T04:46:25.851Z,18.67
2018-11-21T04:49:13.461Z,18.83
2018-11-21T04:52:01.221Z,20.77
2018-11-21T04:54:48.768Z,18.57
2018-11-21T04:57:36.351Z,20.87
2018-11-21T05:00:23.918Z,18.80
2018-11-21T05:03:11.437Z,18.03
2018-11-21T05:05:59.217Z,21.03
2018-11-21T05:08:46.735Z,20.07
2018-11-21T05:11:34.257Z,22.37
2018-11-21T05:14:21.777Z,19.63
2018-11-21T05:17:09.345Z,21.70
2018-11-21T05:19:57.092Z,22.43
2018-11-21T05:22:44.639Z,23.30
2018-11-21T05:25:32.205Z,19.23
2018-11-21T05:28:19.816Z,22.73
2018-11-21T05:31:07.337Z,20.37
2018-11-21T05:33:54.875Z,20.77
2018-11-21T05:36:42.623Z,21.03
2018-11-21T05:39:30.617Z,20.40
2018-11-21T05:42:18.236Z,18.97
2018-11-21T05:45:06.348Z,21.83
2018-11-21T05:47:54.148Z,21.63
2018-11-21T05:50:41.701Z,23.27
2018-11-21T05:53:29.237Z,23.90
2018-11-21T05:56:16.766Z,22.10
2018-11-21T05:59:04.454Z,23.00
2018-11-21T06:01:52.231Z,24.40
2018-11-21T06:04:40.046Z,24.10
2018-11-21T06:07:20.909Z,8.73
2018-11-21T06:10:01.464Z,23.17
2018-11-21T06:12:42.070Z,26.93
2018-11-21T06:15:23.100Z,23.97
2018-11-21T06:18:03.720Z,17.90
2018-11-21T06:20:44.331Z,25.17
2018-11-21T06:23:24.818Z,22.67
2018-11-21T06:26:05.092Z,23.47
2018-11-21T06:28:45.484Z,8.53
2018-11-21T06:31:25.660Z,24.27
2018-11-21T06:34:06.302Z,23.20
2018-11-21T06:36:46.665Z,20.80
2018-11-21T06:39:27.480Z,21.40
2018-11-21T06:42:07.910Z,25.00
2018-11-21T06:44:48.325Z,24.23
2018-11-21T06:47:28.913Z,24.27
2018-11-21T06:50:09.794Z,21.53
2018-11-21T06:52:37.898Z,21.10
2018-11-21T06:55:25.473Z,24.37
2018-11-21T06:58:13.242Z,10.07
2018-11-21T07:01:00.959Z,20.97
2018-11-21T07:03:48.506Z,23.83
2018-11-21T07:06:36.328Z,23.10
2018-11-21T07:09:23.865Z,24.87
2018-11-21T07:15:05.155Z,24.13
2018-11-21T07:17:52.683Z,23.60
2018-11-21T07:20:40.212Z,24.30
2018-11-21T07:23:27.815Z,26.63
2018-11-21T07:26:15.711Z,22.27
2018-11-21T07:29:03.285Z,25.57
2018-11-21T07:31:50.824Z,24.37
2018-11-21T07:34:38.358Z,22.77
2018-11-21T07:37:26.077Z,25.47
2018-11-21T07:43:21.356Z,24.50
2018-11-21T07:46:08.870Z,21.90
2018-11-21T07:48:56.412Z,26.57
2018-11-21T07:54:37.896Z,25.80
2018-11-21T07:57:49.388Z,24.17
2018-11-21T08:00:38.096Z,20.93
2018-11-21T08:03:27.288Z,26.33
2018-11-21T08:06:34.038Z,22.17
2018-11-21T08:09:40.804Z,23.07
2018-11-21T08:12:47.572Z,22.50
2018-11-21T08:15:54.329Z,24.47
2018-11-21T08:18:50.068Z,20.20
2018-11-21T08:21:56.803Z,23.97
2018-11-21T08:25:03.557Z,23.07
2018-11-21T08:28:10.389Z,23.53
2018-11-21T08:30:57.923Z,22.60
2018-11-21T08:33:45.502Z,21.27
2018-11-21T08:36:33.252Z,20.07
2018-11-21T08:39:21.161Z,22.87
2018-11-21T08:42:08.690Z,28.30
2018-11-21T08:44:56.230Z,25.53
2018-11-21T08:47:43.774Z,10.63
2018-11-21T08:50:31.395Z,12.93
2018-11-21T08:53:18.936Z,19.93
2018-11-21T08:56:06.452Z,21.57
2018-11-21T08:58:53.998Z,21.83
2018-11-21T09:01:41.630Z,23.63
2018-11-21T09:04:29.390Z,23.20
2018-11-21T09:07:17.198Z,19.27
2018-11-21T09:10:05.815Z,9.90
2018-11-21T09:12:53.332Z,20.67
2018-11-21T09:15:40.917Z,22.07
2018-11-21T09:18:28.448Z,20.63
2018-11-21T09:21:15.999Z,21.70
2018-11-21T09:24:03.568Z,19.60
2018-11-21T09:26:51.104Z,19.87
2018-11-21T09:29:38.625Z,26.17
2018-11-21T09:32:26.180Z,19.57
2018-11-21T09:35:14.526Z,21.80
2018-11-21T09:38:02.090Z,18.90
2018-11-21T09:40:49.652Z,23.43
2018-11-21T09:43:37.209Z,22.07
2018-11-21T09:46:25.117Z,22.87
2018-11-21T09:49:12.689Z,23.50
2018-11-21T09:52:00.205Z,22.40
2018-11-21T09:54:47.744Z,22.67
2018-11-21T09:57:28.673Z,22.43
2018-11-21T10:00:09.052Z,24.83
2018-11-21T10:02:49.355Z,22.40
2018-11-21T10:05:29.474Z,12.47
2018-11-21T10:08:10.766Z,22.67
2018-11-21T10:10:51.790Z,20.73
2018-11-21T10:13:33.107Z,16.17
2018-11-21T10:16:13.383Z,23.80
2018-11-21T10:18:55.004Z,21.40
2018-11-21T10:21:36.273Z,22.23
2018-11-21T10:24:16.973Z,20.73
2018-11-21T10:26:57.582Z,25.63
2018-11-21T10:29:38.530Z,22.07
2018-11-21T10:32:19.201Z,18.43
2018-11-21T10:34:59.992Z,23.00
2018-11-21T10:37:39.720Z,11.27
2018-11-21T10:40:27.268Z,25.80
2018-11-21T10:43:14.783Z,15.90
2018-11-21T10:46:02.356Z,21.00
2018-11-21T10:48:50.006Z,24.00
2018-11-21T10:51:37.795Z,22.23
2018-11-21T10:54:25.327Z,22.17
2018-11-21T10:57:13.137Z,24.37
2018-11-21T11:00:00.918Z,20.63
2018-11-21T11:03:07.673Z,19.90
2018-11-21T11:06:14.428Z,21.50
2018-11-21T11:09:21.224Z,24.23
2018-11-21T11:12:27.976Z,17.87
2018-11-21T11:15:34.780Z,21.33
2018-11-21T11:18:41.540Z,23.27
2018-11-21T11:21:39.466Z,10.27
2018-11-21T11:24:46.219Z,19.27
2018-11-21T11:27:52.955Z,23.20
2018-11-21T11:30:59.731Z,21.20
2018-11-21T11:33:54.776Z,22.43
2018-11-21T11:37:01.543Z,21.63
2018-11-21T11:40:08.292Z,22.57
2018-11-21T11:43:15.309Z,22.50
2018-11-21T11:46:22.070Z,16.10
2018-11-21T11:49:28.811Z,20.70
2018-11-21T11:52:35.599Z,21.93
2018-11-21T11:55:42.362Z,22.77
2018-11-21T11:58:49.125Z,17.20
2018-11-21T12:01:55.888Z,24.77
2018-11-21T12:04:55.744Z,19.83
2018-11-21T12:07:55.816Z,21.00
2018-11-21T12:10:55.914Z,9.63
2018-11-21T12:13:55.880Z,20.10
2018-11-21T12:16:53.862Z,20.80
2018-11-21T12:20:00.650Z,18.07
2018-11-21T12:23:07.447Z,22.67
2018-11-21T12:26:14.184Z,22.77
2018-11-21T12:29:20.946Z,18.37
2018-11-21T12:32:27.726Z,13.40
2018-11-21T12:35:34.467Z,8.13
2018-11-21T12:38:35.383Z,23.10
2018-11-21T12:41:42.188Z,22.70
2018-11-21T12:44:48.958Z,18.30
2018-11-21T12:47:55.970Z,24.50
2018-11-21T12:51:02.823Z,24.17
2018-11-21T12:54:09.627Z,20.13
2018-11-21T12:57:16.432Z,23.47
2018-11-21T13:00:23.399Z,24.67
2018-11-21T13:03:30.143Z,25.10
2018-11-21T13:06:36.961Z,14.23
2018-11-21T13:09:43.776Z,24.13
2018-11-21T13:12:50.570Z,23.53
2018-11-21T13:15:57.523Z,24.57
2018-11-21T13:19:04.347Z,23.80
2018-11-21T13:22:11.366Z,29.20
2018-11-21T13:25:18.296Z,21.90
2018-11-21T13:28:25.073Z,27.93
2018-11-21T13:31:31.901Z,26.27
2018-11-21T13:34:38.681Z,27.30
2018-11-21T13:37:45.742Z,23.07
2018-11-21T13:40:52.582Z,10.40
2018-11-21T13:43:59.414Z,21.33
2018-11-21T13:47:06.305Z,23.60
2018-11-21T13:50:13.353Z,25.20
2018-11-21T13:53:20.158Z,25.70
2018-11-21T13:56:07.736Z,23.73
2018-11-21T13:58:55.290Z,22.33
2018-11-21T14:01:43.144Z,17.17
2018-11-21T14:04:30.742Z,21.10
2018-11-21T14:07:18.555Z,22.77
2018-11-21T14:10:07.211Z,26.10
2018-11-21T14:12:54.875Z,21.57
2018-11-21T14:15:42.408Z,26.70
2018-11-21T14:18:30.030Z,20.53
2018-11-21T14:21:17.861Z,24.73
2018-11-21T14:24:05.550Z,21.53
2018-11-21T14:26:33.666Z,22.40
2018-11-21T14:29:21.253Z,21.57
2018-11-21T14:32:08.959Z,24.07
2018-11-21T14:34:56.795Z,14.07
2018-11-21T14:37:44.665Z,25.20
2018-11-21T14:40:32.495Z,20.13
2018-11-21T14:43:19.828Z,22.40
2018-11-21T14:46:07.792Z,23.13
2018-11-21T14:51:49.269Z,10.80
2018-11-21T14:54:36.900Z,23.27
2018-11-21T14:57:24.478Z,22.27
2018-11-21T15:00:14.032Z,25.10
2018-11-21T15:03:01.617Z,28.13
2018-11-21T15:05:49.181Z,26.23
2018-11-21T15:08:36.767Z,24.07
2018-11-21T15:11:24.340Z,23.73
2018-11-21T15:14:12.015Z,23.20
2018-11-21T15:16:40.898Z,25.60
2018-11-21T15:19:28.863Z,24.17
2018-11-21T15:22:16.744Z,25.63
2018-11-21T15:25:04.606Z,25.33
2018-11-21T15:27:45.064Z,26.37
2018-11-21T15:30:26.679Z,24.67
2018-11-21T15:33:07.534Z,25.07
2018-11-21T15:35:47.792Z,23.47
2018-11-21T15:38:28.176Z,26.50
2018-11-21T15:41:08.752Z,23.73
2018-11-21T15:43:37.234Z,23.77
2018-11-21T15:46:06.608Z,24.13
2018-11-21T15:48:54.376Z,25.40
2018-11-21T15:51:42.072Z,26.13
2018-11-21T15:54:29.615Z,27.80
2018-11-21T15:56:57.810Z,24.40
2018-11-21T15:59:45.461Z,25.57
2018-11-21T16:02:33.286Z,25.67
2018-11-21T16:05:20.945Z,29.27
2018-11-21T16:08:08.504Z,27.77
2018-11-21T16:10:47.005Z,27.40
2018-11-21T16:13:35.368Z,29.20
2018-11-21T16:16:23.001Z,27.50
2018-11-21T16:19:10.795Z,25.53
2018-11-21T16:21:58.452Z,24.93
2018-11-21T16:24:46.027Z,24.37
2018-11-21T16:27:33.882Z,25.13
2018-11-21T16:30:23.130Z,24.87
2018-11-21T16:33:10.750Z,27.80
2018-11-21T16:35:58.375Z,25.23
2018-11-21T16:38:47.305Z,28.73
2018-11-21T16:41:34.854Z,28.87
2018-11-21T16:44:22.485Z,26.93
2018-11-21T16:47:10.164Z,29.80
2018-11-21T16:49:57.800Z,29.80
2018-11-21T16:52:45.506Z,27.33
2018-11-21T16:55:33.107Z,25.33
2018-11-21T16:58:20.704Z,24.27
2018-11-21T17:01:08.285Z,28.53
2018-11-21T17:03:55.856Z,26.23
2018-11-21T17:06:43.513Z,28.10
2018-11-21T17:09:50.386Z,24.87
2018-11-21T17:12:37.985Z,24.73
2018-11-21T17:15:27.267Z,23.03
2018-11-21T17:18:14.848Z,22.67
2018-11-21T17:21:03.029Z,23.97
2018-11-21T17:23:50.962Z,28.73
2018-11-21T17:26:38.516Z,22.53
2018-11-21T17:29:19.320Z,23.37
2018-11-21T17:31:59.848Z,25.77
2018-11-21T17:34:40.652Z,26.63
2018-11-21T17:37:09.234Z,25.43
2018-11-21T17:39:56.734Z,24.60
2018-11-21T17:42:44.403Z,26.00
2018-11-21T17:45:32.024Z,24.37
2018-11-21T17:48:19.887Z,25.10
2018-11-21T17:51:07.761Z,23.17
2018-11-21T17:53:55.310Z,26.10
2018-11-21T17:56:42.898Z,25.53
2018-11-21T17:59:30.466Z,27.63
2018-11-21T18:02:18.076Z,26.87
2018-11-21T18:05:08.413Z,28.07
2018-11-21T18:07:53.829Z,28.70
2018-11-21T18:10:41.949Z,31.67
2018-11-21T18:13:29.609Z,29.43
2018-11-21T18:15:57.733Z,26.83
2018-11-21T18:18:45.346Z,25.67
2018-11-21T18:21:33.047Z,27.07
2018-11-21T18:24:20.642Z,30.57
2018-11-21T18:27:08.300Z,29.27
2018-11-21T18:29:55.862Z,27.20
2018-11-21T18:32:44.147Z,31.13
2018-11-21T18:35:35.532Z,30.50
2018-11-21T18:38:20.105Z,34.10
2018-11-21T18:41:07.991Z,29.37
2018-11-21T18:43:55.642Z,35.47
2018-11-21T18:46:43.571Z,32.43
2018-11-21T18:49:31.471Z,30.23
2018-11-21T18:52:19.008Z,29.50
2018-11-21T18:55:08.127Z,31.00
2018-11-21T18:58:15.182Z,30.00
2018-11-21T19:01:03.018Z,28.70
2018-11-21T19:03:50.643Z,27.40
2018-11-21T19:06:18.996Z,31.57
2018-11-21T19:09:08.962Z,28.13
2018-11-21T19:11:56.648Z,29.40
2018-11-21T19:14:24.827Z,28.97
2018-11-21T19:17:12.623Z,28.33
2018-11-21T19:20:00.200Z,27.20
2018-11-21T19:22:47.799Z,26.37
2018-11-21T19:25:37.530Z,27.57
2018-11-21T19:28:25.153Z,28.67
2018-11-21T19:31:12.974Z,28.03
2018-11-21T19:34:00.587Z,27.07
2018-11-21T19:36:48.105Z,27.40
2018-11-21T19:39:35.653Z,27.07
2018-11-21T19:42:23.184Z,26.50
2018-11-21T19:45:11.903Z,25.87
2018-11-21T19:47:59.413Z,25.93
2018-11-21T19:50:46.956Z,35.37
2018-11-21T19:53:34.809Z,28.83
2018-11-21T19:56:22.337Z,28.60
2018-11-21T19:59:09.915Z,27.33
2018-11-21T20:01:57.531Z,25.93
2018-11-21T20:04:45.070Z,26.07
2018-11-21T20:07:32.577Z,24.20
2018-11-21T20:10:20.788Z,24.97
2018-11-21T20:16:15.341Z,24.23
2018-11-21T20:19:02.870Z,25.60
2018-11-21T20:21:50.454Z,25.60
2018-11-21T20:24:38.025Z,27.30
2018-11-21T20:27:25.567Z,25.67
2018-11-21T20:30:32.946Z,28.43
2018-11-21T20:33:20.520Z,24.63
2018-11-21T20:36:08.346Z,25.93
2018-11-21T20:38:55.922Z,25.20
2018-11-21T20:41:43.466Z,23.47
2018-11-21T20:44:31.274Z,24.10
2018-11-21T20:47:18.815Z,24.10
2018-11-21T20:50:06.649Z,25.37
2018-11-21T20:52:57.030Z,24.13
2018-11-21T20:55:44.769Z,23.27
2018-11-21T20:58:32.317Z,23.70
2018-11-21T21:01:20.143Z,23.77
2018-11-21T21:04:07.687Z,24.80
2018-11-21T21:06:55.411Z,24.43
2018-11-21T21:09:43.041Z,24.07
2018-11-21T21:12:30.628Z,28.57
2018-11-21T21:15:18.197Z,23.23
2018-11-21T21:18:05.766Z,22.53
2018-11-21T21:20:53.485Z,23.33
2018-11-21T21:23:41.290Z,25.03
2018-11-21T21:26:28.840Z,24.20
2018-11-21T21:29:16.401Z,23.83
2018-11-21T21:32:04.024Z,22.73
2018-11-21T21:34:51.568Z,24.53
2018-11-21T21:37:39.112Z,21.83
2018-11-21T21:40:26.708Z,22.90
2018-11-21T21:43:14.279Z,22.07
2018-11-21T21:46:02.116Z,23.93
2018-11-21T21:48:49.405Z,21.60
2018-11-21T21:51:36.806Z,23.47
2018-11-21T21:54:24.146Z,22.93
2018-11-21T21:57:11.777Z,22.13
2018-11-21T21:59:52.284Z,22.70
2018-11-21T22:02:32.785Z,22.33
2018-11-21T22:05:13.790Z,22.33
2018-11-21T22:07:54.130Z,21.27
2018-11-21T22:10:34.706Z,22.07
2018-11-21T22:13:15.589Z,21.10
2018-11-21T22:15:56.338Z,21.77
2018-11-21T22:18:36.923Z,21.90
2018-11-21T22:21:17.158Z,22.07
2018-11-21T22:23:57.675Z,21.13
2018-11-21T22:26:38.639Z,21.17
2018-11-21T22:29:06.844Z,22.70
2018-11-21T22:32:13.639Z,21.63
2018-11-21T22:35:01.320Z,21.20
2018-11-21T22:37:51.405Z,21.37
2018-11-21T22:40:36.742Z,21.30
2018-11-21T22:43:24.263Z,21.83
2018-11-21T22:46:11.854Z,21.57
2018-11-21T22:48:59.654Z,20.10
2018-11-21T22:51:47.681Z,20.20
2018-11-21T22:54:34.818Z,22.17
2018-11-21T22:57:22.386Z,21.33
2018-11-21T23:00:10.760Z,21.30
2018-11-21T23:02:58.334Z,22.03
2018-11-21T23:05:45.884Z,22.43
2018-11-21T23:08:33.486Z,21.90
2018-11-21T23:11:21.010Z,20.60
2018-11-21T23:14:08.574Z,20.07
2018-11-21T23:16:56.135Z,20.47
2018-11-21T23:19:44.065Z,20.37
2018-11-21T23:22:32.580Z,22.17
2018-11-21T23:25:19.682Z,21.37
2018-11-21T23:28:07.220Z,20.73
2018-11-21T23:33:48.613Z,20.43
2018-11-21T23:36:36.206Z,20.50
2018-11-21T23:39:23.741Z,21.30
2018-11-21T23:42:11.334Z,22.63
2018-11-21T23:44:58.921Z,21.37
2018-11-21T23:47:46.611Z,21.13
2018-11-21T23:50:34.577Z,21.40
2018-11-21T23:53:22.091Z,21.10
2018-11-21T23:56:09.639Z,22.03
2018-11-21T23:58:37.723Z,21.57
